createdAt,value
2019-03-23T00:02:07.909Z,59.00
2019-03-23T00:05:12.300Z,59.00
2019-03-23T00:08:16.719Z,59.00
2019-03-23T00:11:21.127Z,59.00
2019-03-23T00:14:25.550Z,59.00
2019-03-23T00:17:29.916Z,59.00
2019-03-23T00:20:23.230Z,59.00
2019-03-23T00:23:27.642Z,59.00
2019-03-23T00:26:32.050Z,59.00
2019-03-23T00:29:36.439Z,59.00
2019-03-23T00:32:40.849Z,59.00
2019-03-23T00:35:45.244Z,59.00
2019-03-23T00:38:49.646Z,59.00
2019-03-23T00:41:54.059Z,59.00
2019-03-23T00:44:58.438Z,59.00
2019-03-23T00:48:02.850Z,59.00
2019-03-23T00:51:07.271Z,59.00
2019-03-23T00:54:11.659Z,59.00
2019-03-23T00:57:16.069Z,59.00
2019-03-23T01:00:09.390Z,59.00
2019-03-23T01:03:13.800Z,59.00
2019-03-23T01:06:18.208Z,59.00
2019-03-23T01:09:22.597Z,59.00
2019-03-23T01:12:27.015Z,59.00
2019-03-23T01:15:31.401Z,59.00
2019-03-23T01:18:35.811Z,59.00
2019-03-23T01:21:40.224Z,59.00
2019-03-23T01:24:44.617Z,59.00
2019-03-23T01:27:49.025Z,59.00
2019-03-23T01:30:42.339Z,59.00
2019-03-23T01:33:46.762Z,59.00
2019-03-23T01:36:51.172Z,59.00
2019-03-23T01:39:55.556Z,59.00
2019-03-23T01:42:59.987Z,59.00
2019-03-23T01:46:04.378Z,59.00
2019-03-23T01:49:08.790Z,59.00
2019-03-23T01:52:13.194Z,59.00
2019-03-23T01:55:17.579Z,59.00
2019-03-23T01:58:21.995Z,59.00
2019-03-23T02:01:26.383Z,59.00
2019-03-23T02:04:30.787Z,59.00
2019-03-23T02:07:35.195Z,59.00
2019-03-23T02:10:28.507Z,60.00
2019-03-23T02:13:32.923Z,60.00
2019-03-23T02:16:37.332Z,60.00
2019-03-23T02:19:41.752Z,60.00
2019-03-23T02:22:46.168Z,60.00
2019-03-23T02:25:51.045Z,60.00
2019-03-23T02:28:55.455Z,60.00
2019-03-23T02:31:59.867Z,60.00
2019-03-23T02:35:04.256Z,59.00
2019-03-23T02:38:08.675Z,59.00
2019-03-23T02:41:13.061Z,59.00
2019-03-23T02:44:17.473Z,59.00
2019-03-23T02:47:22.900Z,59.00
2019-03-23T02:50:16.227Z,60.00
2019-03-23T02:53:20.636Z,59.00
2019-03-23T02:56:25.024Z,59.00
2019-03-23T02:59:30.453Z,59.00
2019-03-23T03:02:34.857Z,59.00
2019-03-23T03:05:39.246Z,59.00
2019-03-23T03:08:43.659Z,59.00
2019-03-23T03:11:48.051Z,59.00
2019-03-23T03:14:52.466Z,60.00
2019-03-23T03:17:56.880Z,59.00
2019-03-23T03:21:01.263Z,59.00
2019-03-23T03:24:05.678Z,59.00
2019-03-23T03:27:10.084Z,59.00
2019-03-23T03:30:03.433Z,59.00
2019-03-23T03:33:07.830Z,59.00
2019-03-23T03:36:12.218Z,59.00
2019-03-23T03:39:16.625Z,59.00
2019-03-23T03:42:21.040Z,60.00
2019-03-23T03:45:25.429Z,60.00
2019-03-23T03:48:29.831Z,60.00
2019-03-23T03:51:34.223Z,61.00
2019-03-23T03:54:38.637Z,61.00
2019-03-23T03:57:43.069Z,61.00
2019-03-23T04:00:36.379Z,61.00
2019-03-23T04:03:40.799Z,61.00
2019-03-23T04:06:45.197Z,62.00
2019-03-23T04:09:50.611Z,61.00
2019-03-23T04:12:55.025Z,61.00
2019-03-23T04:15:59.413Z,63.00
2019-03-23T04:19:03.841Z,62.00
2019-03-23T04:22:08.226Z,61.00
2019-03-23T04:25:12.633Z,61.00
2019-03-23T04:28:17.043Z,62.00
2019-03-23T04:31:21.445Z,63.00
2019-03-23T04:34:25.859Z,60.00
2019-03-23T04:37:30.271Z,61.00
2019-03-23T04:40:23.596Z,60.00
2019-03-23T04:43:28.006Z,60.00
2019-03-23T04:46:32.393Z,60.00
2019-03-23T04:49:36.814Z,60.00
2019-03-23T04:52:41.215Z,60.00
2019-03-23T04:55:45.606Z,61.00
2019-03-23T04:58:50.012Z,60.00
2019-03-23T05:01:54.403Z,60.00
2019-03-23T05:04:58.819Z,60.00
2019-03-23T05:08:03.234Z,60.00
2019-03-23T05:11:07.632Z,60.00
2019-03-23T05:14:12.047Z,61.00
2019-03-23T05:17:16.439Z,60.00
2019-03-23T05:20:09.778Z,60.00
2019-03-23T05:23:14.214Z,61.00
2019-03-23T05:26:18.607Z,61.00
2019-03-23T05:29:23.016Z,60.00
2019-03-23T05:32:27.411Z,60.00
2019-03-23T05:35:31.820Z,60.00
2019-03-23T05:38:43.857Z,60.00
2019-03-23T05:41:40.622Z,60.00
2019-03-23T05:44:45.031Z,61.00
2019-03-23T05:47:50.461Z,60.00
2019-03-23T05:50:43.782Z,60.00
2019-03-23T05:53:48.188Z,60.00
2019-03-23T05:56:52.576Z,60.00
2019-03-23T05:59:57.478Z,60.00
2019-03-23T06:03:01.897Z,60.00
2019-03-23T06:06:06.283Z,60.00
2019-03-23T06:09:10.703Z,60.00
2019-03-23T06:12:15.076Z,60.00
2019-03-23T06:15:19.486Z,59.00
2019-03-23T06:18:23.898Z,61.00
2019-03-23T06:21:28.284Z,60.00
2019-03-23T06:24:33.198Z,60.00
2019-03-23T06:27:37.580Z,58.00
2019-03-23T06:30:30.915Z,60.00
2019-03-23T06:33:35.326Z,59.00
2019-03-23T06:36:39.718Z,61.00
2019-03-23T06:39:44.130Z,61.00
2019-03-23T06:42:59.123Z,59.00
2019-03-23T06:45:52.924Z,60.00
2019-03-23T06:48:57.333Z,61.00
2019-03-23T06:52:01.726Z,59.00
2019-03-23T06:55:06.144Z,60.00
2019-03-23T06:58:10.540Z,60.00
2019-03-23T07:01:14.952Z,60.00
2019-03-23T07:04:19.371Z,60.00
2019-03-23T07:07:23.771Z,60.00
2019-03-23T07:10:17.126Z,58.00
2019-03-23T07:13:21.547Z,62.00
2019-03-23T07:16:25.965Z,59.00
2019-03-23T07:19:30.396Z,62.00
2019-03-23T07:22:34.802Z,62.00
2019-03-23T07:25:39.229Z,63.00
2019-03-23T07:28:43.660Z,60.00
2019-03-23T07:31:48.074Z,59.00
2019-03-23T07:34:52.505Z,61.00
2019-03-23T07:37:56.920Z,59.00
2019-03-23T07:41:01.349Z,59.00
2019-03-23T07:44:05.782Z,61.00
2019-03-23T07:47:10.190Z,60.00
2019-03-23T07:50:03.548Z,60.00
2019-03-23T07:53:07.966Z,59.00
2019-03-23T07:56:12.405Z,62.00
2019-03-23T07:59:16.848Z,61.00
2019-03-23T08:02:21.261Z,61.00
2019-03-23T08:05:25.697Z,59.00
2019-03-23T08:08:30.111Z,61.00
2019-03-23T08:11:34.578Z,59.00
2019-03-23T08:14:39.066Z,59.00
2019-03-23T08:17:43.503Z,65.00
2019-03-23T08:20:36.873Z,63.00
2019-03-23T08:23:41.306Z,64.00
2019-03-23T08:26:45.761Z,65.00
2019-03-23T08:29:50.185Z,60.00
2019-03-23T08:32:54.634Z,62.00
2019-03-23T08:35:59.082Z,68.00
2019-03-23T08:39:03.508Z,67.00
2019-03-23T08:42:07.968Z,65.00
2019-03-23T08:45:12.400Z,59.00
2019-03-23T08:48:16.843Z,60.00
2019-03-23T08:51:21.292Z,60.00
2019-03-23T08:54:25.714Z,59.00
2019-03-23T08:57:30.165Z,59.00
2019-03-23T09:00:23.522Z,59.00
2019-03-23T09:03:27.969Z,59.00
2019-03-23T09:06:32.422Z,61.00
2019-03-23T09:09:36.849Z,61.00
2019-03-23T09:12:41.298Z,63.00
2019-03-23T09:15:45.731Z,59.00
2019-03-23T09:18:50.192Z,62.00
2019-03-23T09:21:54.643Z,63.00
2019-03-23T09:24:59.076Z,62.00
2019-03-23T09:28:03.534Z,64.00
2019-03-23T09:31:07.995Z,63.00
2019-03-23T09:34:12.452Z,64.00
2019-03-23T09:37:16.914Z,64.00
2019-03-23T09:40:11.351Z,61.00
2019-03-23T09:43:14.733Z,60.00
2019-03-23T09:46:19.165Z,59.00
2019-03-23T09:49:23.612Z,61.00
2019-03-23T09:52:28.067Z,60.00
2019-03-23T09:55:32.499Z,61.00
2019-03-23T09:58:36.954Z,59.00
2019-03-23T10:01:41.389Z,59.00
2019-03-23T10:04:45.871Z,61.00
2019-03-23T10:07:50.336Z,67.00
2019-03-23T10:10:43.701Z,64.00
2019-03-23T10:13:48.160Z,68.00
2019-03-23T10:16:52.605Z,65.00
2019-03-23T10:19:57.064Z,65.00
2019-03-23T10:23:01.526Z,64.00
2019-03-23T10:26:05.959Z,60.00
2019-03-23T10:29:10.416Z,68.00
2019-03-23T10:32:14.850Z,66.00
2019-03-23T10:35:19.309Z,63.00
2019-03-23T10:38:23.776Z,64.00
2019-03-23T10:41:28.215Z,63.00
2019-03-23T10:44:32.672Z,62.00
2019-03-23T10:47:37.201Z,60.00
2019-03-23T10:50:30.492Z,60.00
2019-03-23T10:53:34.954Z,65.00
2019-03-23T10:56:39.394Z,62.00
2019-03-23T10:59:43.849Z,63.00
2019-03-23T11:02:48.287Z,66.00
2019-03-23T11:05:52.763Z,62.00
2019-03-23T11:08:57.215Z,65.00
2019-03-23T11:12:01.651Z,64.00
2019-03-23T11:15:06.113Z,69.00
2019-03-23T11:18:10.555Z,66.00
2019-03-23T11:21:15.022Z,66.00
2019-03-23T11:24:19.487Z,68.00
2019-03-23T11:27:23.927Z,67.00
2019-03-23T11:30:17.339Z,66.00
2019-03-23T11:33:21.774Z,69.00
2019-03-23T11:36:26.250Z,64.00
2019-03-23T11:39:31.729Z,65.00
2019-03-23T11:42:36.173Z,65.00
2019-03-23T11:45:40.637Z,67.00
2019-03-23T11:48:46.097Z,66.00
2019-03-23T11:51:50.629Z,68.00
2019-03-23T11:54:55.267Z,68.00
2019-03-23T11:57:59.711Z,65.00
2019-03-23T12:01:04.322Z,71.00
2019-03-23T12:04:08.768Z,66.00
2019-03-23T12:07:13.265Z,66.00
2019-03-23T12:10:06.652Z,67.00
2019-03-23T12:13:11.095Z,62.00
2019-03-23T12:16:15.558Z,65.00
2019-03-23T12:19:20.052Z,62.00
2019-03-23T12:22:24.673Z,62.00
2019-03-23T12:25:29.141Z,62.00
2019-03-23T12:28:33.666Z,60.00
2019-03-23T12:31:38.183Z,63.00
2019-03-23T12:34:42.711Z,61.00
2019-03-23T12:37:47.314Z,59.00
2019-03-23T12:40:40.704Z,61.00
2019-03-23T12:43:45.229Z,58.00
2019-03-23T12:46:49.714Z,63.00
2019-03-23T12:49:43.067Z,66.00
2019-03-23T12:52:47.568Z,59.00
2019-03-23T12:55:52.018Z,61.00
2019-03-23T12:58:56.519Z,64.00
2019-03-23T13:02:00.983Z,62.00
2019-03-23T13:05:05.431Z,63.00
2019-03-23T13:08:09.897Z,63.00
2019-03-23T13:11:23.113Z,64.00
2019-03-23T13:14:18.793Z,63.00
2019-03-23T13:17:23.262Z,66.00
2019-03-23T13:20:17.678Z,67.00
2019-03-23T13:23:23.118Z,67.00
2019-03-23T13:26:27.553Z,64.00
2019-03-23T13:29:32.024Z,66.00
2019-03-23T13:32:36.487Z,64.00
2019-03-23T13:35:40.927Z,63.00
2019-03-23T13:38:45.389Z,62.00
2019-03-23T13:41:49.837Z,63.00
2019-03-23T13:44:54.303Z,63.00
2019-03-23T13:47:58.780Z,63.00
2019-03-23T13:51:03.226Z,61.00
2019-03-23T13:54:07.691Z,66.00
2019-03-23T13:57:12.127Z,59.00
2019-03-23T14:00:05.510Z,61.00
2019-03-23T14:03:09.968Z,63.00
2019-03-23T14:06:14.406Z,63.00
2019-03-23T14:09:19.874Z,62.00
2019-03-23T14:12:24.312Z,64.00
2019-03-23T14:15:28.771Z,66.00
2019-03-23T14:18:33.235Z,68.00
2019-03-23T14:21:37.678Z,67.00
2019-03-23T14:24:42.137Z,65.00
2019-03-23T14:27:46.573Z,80.00
2019-03-23T14:30:39.964Z,66.00
2019-03-23T14:33:44.416Z,64.00
2019-03-23T14:36:48.848Z,65.00
2019-03-23T14:39:53.298Z,64.00
2019-03-23T14:42:57.727Z,66.00
2019-03-23T14:46:02.172Z,65.00
2019-03-23T14:49:06.626Z,66.00
2019-03-23T14:52:11.052Z,66.00
2019-03-23T14:55:15.519Z,68.00
2019-03-23T14:58:19.944Z,66.00
2019-03-23T15:01:24.389Z,65.00
2019-03-23T15:04:28.827Z,64.00
2019-03-23T15:07:33.243Z,62.00
2019-03-23T15:10:26.603Z,61.00
2019-03-23T15:13:31.042Z,65.00
2019-03-23T15:16:35.474Z,66.00
2019-03-23T15:19:39.899Z,68.00
2019-03-23T15:22:44.339Z,66.00
2019-03-23T15:25:48.786Z,64.00
2019-03-23T15:28:53.201Z,65.00
2019-03-23T15:31:57.642Z,67.00
2019-03-23T15:35:02.058Z,67.00
2019-03-23T15:38:07.501Z,61.00
2019-03-23T15:41:11.935Z,60.00
2019-03-23T15:44:16.351Z,60.00
2019-03-23T15:47:20.788Z,64.00
2019-03-23T15:50:14.129Z,60.00
2019-03-23T15:53:18.586Z,63.00
2019-03-23T15:56:23.016Z,61.00
2019-03-23T15:59:27.431Z,61.00
2019-03-23T16:02:31.861Z,60.00
2019-03-23T16:05:37.288Z,59.00
2019-03-23T16:08:41.716Z,59.00
2019-03-23T16:11:46.149Z,61.00
2019-03-23T16:14:50.568Z,62.00
2019-03-23T16:17:55.005Z,60.00
2019-03-23T16:20:48.335Z,60.00
2019-03-23T16:23:52.765Z,64.00
2019-03-23T16:26:57.194Z,61.00
2019-03-23T16:30:01.602Z,63.00
2019-03-23T16:33:06.029Z,60.00
2019-03-23T16:36:10.437Z,58.00
2019-03-23T16:39:14.865Z,59.00
2019-03-23T16:42:19.293Z,60.00
2019-03-23T16:45:23.696Z,59.00
2019-03-23T16:48:28.120Z,60.00
2019-03-23T16:51:32.556Z,65.00
2019-03-23T16:54:36.976Z,65.00
2019-03-23T16:57:41.427Z,59.00
2019-03-23T17:00:34.754Z,60.00
2019-03-23T17:03:39.174Z,59.00
2019-03-23T17:06:46.544Z,59.00
2019-03-23T17:09:48.000Z,61.00
2019-03-23T17:12:55.541Z,61.00
2019-03-23T17:15:56.830Z,59.00
2019-03-23T17:19:01.362Z,61.00
2019-03-23T17:22:05.862Z,60.00
2019-03-23T17:25:11.409Z,65.00
2019-03-23T17:28:14.994Z,59.00
2019-03-23T17:31:19.449Z,60.00
2019-03-23T17:34:23.939Z,60.00
2019-03-23T17:37:28.414Z,60.00
2019-03-23T17:40:21.787Z,60.00
2019-03-23T17:43:26.253Z,60.00
2019-03-23T17:46:30.651Z,60.00
2019-03-23T17:49:35.168Z,60.00
2019-03-23T17:52:39.594Z,63.00
2019-03-23T17:55:44.016Z,60.00
2019-03-23T17:58:48.492Z,60.00
2019-03-23T18:01:52.947Z,60.00
2019-03-23T18:04:57.356Z,61.00
2019-03-23T18:08:01.753Z,61.00
2019-03-23T18:11:06.160Z,62.00
2019-03-23T18:14:10.570Z,60.00
2019-03-23T18:17:14.955Z,59.00
2019-03-23T18:20:08.289Z,60.00
2019-03-23T18:23:12.671Z,60.00
2019-03-23T18:26:17.080Z,60.00
2019-03-23T18:29:21.469Z,60.00
2019-03-23T18:32:25.874Z,59.00
2019-03-23T18:35:30.273Z,60.00
2019-03-23T18:38:34.666Z,60.00
2019-03-23T18:41:39.123Z,60.00
2019-03-23T18:44:43.592Z,60.00
2019-03-23T18:47:48.056Z,60.00
2019-03-23T18:50:42.699Z,60.00
2019-03-23T18:53:45.916Z,60.00
2019-03-23T18:56:50.452Z,60.00
2019-03-23T18:59:54.928Z,60.00
2019-03-23T19:02:59.493Z,60.00
2019-03-23T19:06:03.906Z,61.00
2019-03-23T19:09:08.290Z,60.00
2019-03-23T19:12:12.696Z,60.00
2019-03-23T19:15:17.081Z,60.00
2019-03-23T19:18:21.485Z,60.00
2019-03-23T19:21:25.889Z,60.00
2019-03-23T19:24:30.282Z,60.00
2019-03-23T19:27:34.688Z,60.00
2019-03-23T19:30:28.002Z,60.00
2019-03-23T19:33:32.415Z,60.00
2019-03-23T19:36:37.338Z,60.00
2019-03-23T19:39:41.724Z,60.00
2019-03-23T19:42:46.128Z,60.00
2019-03-23T19:45:50.514Z,59.00
2019-03-23T19:48:54.962Z,60.00
2019-03-23T19:51:59.335Z,59.00
2019-03-23T19:55:03.725Z,60.00
2019-03-23T19:58:08.126Z,60.00
2019-03-23T20:01:12.514Z,59.00
2019-03-23T20:04:16.917Z,60.00
2019-03-23T20:07:21.305Z,60.00
2019-03-23T20:10:14.646Z,59.00
2019-03-23T20:13:19.066Z,59.00
2019-03-23T20:16:23.443Z,60.00
2019-03-23T20:19:27.852Z,59.00
2019-03-23T20:22:32.233Z,60.00
2019-03-23T20:25:36.643Z,60.00
2019-03-23T20:28:41.045Z,60.00
2019-03-23T20:31:45.649Z,60.00
2019-03-23T20:34:49.840Z,60.00
2019-03-23T20:37:54.222Z,60.00
2019-03-23T20:40:47.551Z,60.00
2019-03-23T20:43:52.461Z,60.00
2019-03-23T20:46:56.882Z,60.00
2019-03-23T20:50:02.303Z,60.00
2019-03-23T20:53:07.694Z,60.00
2019-03-23T20:56:12.101Z,59.00
2019-03-23T20:59:16.562Z,60.00
2019-03-23T21:02:20.945Z,60.00
2019-03-23T21:05:33.178Z,60.00
2019-03-23T21:08:29.743Z,60.00
2019-03-23T21:11:34.148Z,60.00
2019-03-23T21:14:38.556Z,60.00
2019-03-23T21:17:51.028Z,60.00
2019-03-23T21:20:36.301Z,60.00
2019-03-23T21:23:40.689Z,60.00
2019-03-23T21:26:45.097Z,60.00
2019-03-23T21:29:49.500Z,60.00
2019-03-23T21:32:53.891Z,60.00
2019-03-23T21:35:58.306Z,60.00
2019-03-23T21:39:02.722Z,60.00
2019-03-23T21:42:07.128Z,60.00
2019-03-23T21:45:11.532Z,60.00
2019-03-23T21:48:15.917Z,60.00
2019-03-23T21:51:20.328Z,60.00
2019-03-23T21:54:24.741Z,60.00
2019-03-23T21:57:29.147Z,60.00
2019-03-23T22:00:22.484Z,60.00
2019-03-23T22:03:26.870Z,60.00
2019-03-23T22:06:31.284Z,60.00
2019-03-23T22:09:35.675Z,60.00
2019-03-23T22:12:40.081Z,60.00
2019-03-23T22:15:44.507Z,60.00
2019-03-23T22:18:48.891Z,60.00
2019-03-23T22:21:53.302Z,60.00
2019-03-23T22:24:57.692Z,60.00
2019-03-23T22:28:02.108Z,60.00
2019-03-23T22:31:06.534Z,60.00
2019-03-23T22:34:10.903Z,60.00
2019-03-23T22:37:15.325Z,60.00
2019-03-23T22:40:08.632Z,60.00
2019-03-23T22:43:13.044Z,60.00
2019-03-23T22:46:17.440Z,60.00
2019-03-23T22:49:21.860Z,60.00
2019-03-23T22:52:26.269Z,60.00
2019-03-23T22:55:30.663Z,60.00
2019-03-23T22:58:35.068Z,60.00
2019-03-23T23:01:39.498Z,60.00
2019-03-23T23:04:43.903Z,60.00
2019-03-23T23:07:48.323Z,60.00
2019-03-23T23:10:41.640Z,60.00
2019-03-23T23:13:46.046Z,60.00
2019-03-23T23:16:50.438Z,60.00
2019-03-23T23:19:54.848Z,60.00
2019-03-23T23:22:59.260Z,60.00
2019-03-23T23:26:03.652Z,60.00
2019-03-23T23:29:08.068Z,60.00
2019-03-23T23:32:12.497Z,60.00
2019-03-23T23:35:17.381Z,60.00
2019-03-23T23:38:21.797Z,61.00
2019-03-23T23:41:26.197Z,60.00
2019-03-23T23:44:30.627Z,60.00
2019-03-23T23:47:35.532Z,60.00
2019-03-23T23:50:28.869Z,60.00
2019-03-23T23:53:33.270Z,60.00
2019-03-23T23:56:37.680Z,60.00
2019-03-23T23:59:42.083Z,60.00
